createdAt,value
2023-01-25T00:00:03.974Z,1.33
2023-01-25T00:02:52.085Z,1.31
2023-01-25T00:05:19.099Z,1.29
2023-01-25T00:07:46.164Z,1.29
2023-01-25T00:10:14.105Z,1.28
2023-01-25T00:12:41.087Z,1.26
2023-01-25T00:15:10.374Z,1.24
2023-01-25T00:17:37.736Z,1.21
2023-01-25T00:20:05.050Z,1.18
2023-01-25T00:22:32.154Z,1.16
2023-01-25T00:24:59.260Z,1.15
2023-01-25T00:27:26.265Z,1.13
2023-01-25T00:29:54.725Z,1.12
2023-01-25T00:32:59.396Z,1.11
2023-01-25T00:35:31.648Z,1.08
2023-01-25T00:38:02.154Z,1.05
2023-01-25T00:40:29.898Z,1.03
2023-01-25T00:43:00.808Z,1.03
2023-01-25T00:45:27.918Z,1.02
2023-01-25T00:47:58.508Z,1.01
2023-01-25T00:50:25.513Z,1.01
2023-01-25T00:52:52.832Z,1.00
2023-01-25T00:55:19.873Z,0.99
2023-01-25T00:57:48.916Z,0.99
2023-01-25T01:00:17.709Z,0.98
2023-01-25T01:02:46.534Z,0.96
2023-01-25T01:05:15.401Z,0.96
2023-01-25T01:07:43.842Z,0.96
2023-01-25T01:10:13.743Z,0.96
2023-01-25T01:12:40.824Z,0.93
2023-01-25T01:15:09.791Z,0.91
2023-01-25T01:17:36.961Z,0.90
2023-01-25T01:20:03.977Z,0.88
2023-01-25T01:22:30.973Z,0.86
2023-01-25T01:24:58.100Z,0.84
2023-01-25T01:27:25.118Z,0.83
2023-01-25T01:29:52.124Z,0.81
2023-01-25T01:32:19.543Z,0.78
2023-01-25T01:34:47.025Z,0.76
2023-01-25T01:37:14.075Z,0.73
2023-01-25T01:39:41.377Z,0.70
2023-01-25T01:42:08.593Z,0.68
2023-01-25T01:44:50.454Z,0.65
2023-01-25T01:47:22.859Z,0.61
2023-01-25T01:49:55.507Z,0.59
2023-01-25T01:52:28.639Z,0.55
2023-01-25T01:55:02.130Z,0.53
2023-01-25T01:57:36.538Z,0.53
2023-01-25T02:00:07.074Z,0.53
2023-01-25T02:02:40.251Z,0.54
2023-01-25T02:05:12.633Z,0.54
2023-01-25T02:07:41.553Z,0.54
2023-01-25T02:10:12.867Z,0.55
2023-01-25T02:12:42.643Z,0.54
2023-01-25T02:15:12.104Z,0.52
2023-01-25T02:17:40.902Z,0.48
2023-01-25T02:20:18.219Z,0.45
2023-01-25T02:22:50.628Z,0.45
2023-01-25T02:25:19.908Z,0.46
2023-01-25T02:27:52.225Z,0.45
2023-01-25T02:30:20.082Z,0.44
2023-01-25T02:32:47.092Z,0.43
2023-01-25T02:35:21.345Z,0.41
2023-01-25T02:37:50.089Z,0.38
2023-01-25T02:40:18.335Z,0.34
2023-01-25T02:42:47.557Z,0.31
2023-01-25T02:45:19.873Z,0.29
2023-01-25T02:47:48.794Z,0.30
2023-01-25T02:50:16.475Z,0.30
2023-01-25T02:52:43.596Z,0.29
2023-01-25T02:55:12.964Z,0.27
2023-01-25T02:57:41.748Z,0.26
2023-01-25T03:00:11.786Z,0.25
2023-01-25T03:02:39.696Z,0.24
2023-01-25T03:05:08.183Z,0.21
2023-01-25T03:07:35.377Z,0.21
2023-01-25T03:10:03.810Z,0.20
2023-01-25T03:12:31.152Z,0.17
2023-01-25T03:14:58.598Z,0.18
2023-01-25T03:17:26.635Z,0.17
2023-01-25T03:19:54.078Z,0.14
2023-01-25T03:22:21.794Z,0.10
2023-01-25T03:24:49.291Z,0.06
2023-01-25T03:27:18.763Z,0.04
2023-01-25T03:30:01.769Z,0.02
2023-01-25T03:32:31.510Z,0.01
2023-01-25T03:35:02.720Z,0.02
2023-01-25T03:37:31.419Z,0.02
2023-01-25T03:39:58.867Z,0.00
2023-01-25T03:42:26.625Z,-0.02
2023-01-25T03:44:56.725Z,-0.02
2023-01-25T03:47:23.725Z,-0.02
2023-01-25T03:49:51.149Z,-0.04
2023-01-25T03:52:19.012Z,-0.08
2023-01-25T03:54:46.716Z,-0.10
2023-01-25T03:57:13.867Z,-0.13
2023-01-25T03:59:57.538Z,-0.12
2023-01-25T04:02:25.381Z,-0.14
2023-01-25T04:04:52.910Z,-0.18
2023-01-25T04:07:21.551Z,-0.21
2023-01-25T04:09:50.275Z,-0.24
2023-01-25T04:12:17.808Z,-0.25
2023-01-25T04:14:45.224Z,-0.28
2023-01-25T04:17:21.417Z,-0.30
2023-01-25T04:19:52.392Z,-0.31
2023-01-25T04:22:21.355Z,-0.32
2023-01-25T04:24:49.321Z,-0.34
2023-01-25T04:27:16.469Z,-0.35
2023-01-25T04:29:52.631Z,-0.37
2023-01-25T04:32:20.278Z,-0.38
2023-01-25T04:34:47.461Z,-0.38
2023-01-25T04:37:17.186Z,-0.38
2023-01-25T04:39:51.216Z,-0.39
2023-01-25T04:42:18.460Z,-0.40
2023-01-25T04:44:46.618Z,-0.41
2023-01-25T04:47:13.737Z,-0.43
2023-01-25T04:49:41.217Z,-0.43
2023-01-25T04:52:10.681Z,-0.44
2023-01-25T04:54:37.905Z,-0.42
2023-01-25T04:57:05.686Z,-0.43
2023-01-25T04:59:32.893Z,-0.42
2023-01-25T05:02:01.193Z,-0.42
2023-01-25T05:04:28.602Z,-0.42
2023-01-25T05:06:55.586Z,-0.43
2023-01-25T05:09:22.828Z,-0.49
2023-01-25T05:11:50.133Z,-0.51
2023-01-25T05:14:32.834Z,-0.51
2023-01-25T05:17:00.507Z,-0.53
2023-01-25T05:19:27.780Z,-0.53
2023-01-25T05:21:59.793Z,-0.54
2023-01-25T05:24:33.493Z,-0.55
2023-01-25T05:27:08.202Z,-0.56
2023-01-25T05:30:01.082Z,-0.56
2023-01-25T05:32:57.878Z,-0.57
2023-01-25T05:35:25.037Z,-0.58
2023-01-25T05:37:57.111Z,-0.57
2023-01-25T05:40:24.387Z,-0.58
2023-01-25T05:42:58.493Z,-0.58
2023-01-25T05:45:26.661Z,-0.59
2023-01-25T05:47:57.566Z,-0.59
2023-01-25T05:50:25.488Z,-0.63
2023-01-25T05:53:15.302Z,-0.66
2023-01-25T05:55:42.403Z,-0.67
2023-01-25T05:58:13.177Z,-0.66
2023-01-25T06:00:40.397Z,-0.66
2023-01-25T06:03:07.977Z,-0.66
2023-01-25T06:05:37.223Z,-0.67
2023-01-25T06:08:05.104Z,-0.71
2023-01-25T06:10:42.590Z,-0.73
2023-01-25T06:13:10.037Z,-0.72
2023-01-25T06:15:37.194Z,-0.72
2023-01-25T06:18:25.479Z,-0.73
2023-01-25T06:21:13.312Z,-0.76
2023-01-25T06:23:43.007Z,-0.77
2023-01-25T06:26:13.622Z,-0.80
2023-01-25T06:28:41.316Z,-0.81
2023-01-25T06:31:13.220Z,-0.81
2023-01-25T06:33:41.524Z,-0.82
2023-01-25T06:36:14.207Z,-0.81
2023-01-25T06:38:42.069Z,-0.80
2023-01-25T06:41:12.517Z,-0.81
2023-01-25T06:43:40.126Z,-0.81
2023-01-25T06:46:09.362Z,-0.80
2023-01-25T06:48:36.875Z,-0.81
2023-01-25T06:51:06.131Z,-0.82
2023-01-25T06:53:34.935Z,-0.84
2023-01-25T06:56:04.100Z,-0.86
2023-01-25T06:58:32.547Z,-0.89
2023-01-25T10:59:09.824Z,-0.42
2023-01-25T11:01:38.239Z,-0.45
2023-01-25T11:04:22.614Z,-0.45
2023-01-25T11:06:52.570Z,-0.43
2023-01-25T11:09:40.373Z,-0.41
2023-01-25T11:12:17.683Z,-0.39
2023-01-25T11:14:44.950Z,-0.39
2023-01-25T11:17:26.464Z,-0.40
2023-01-25T11:20:08.724Z,-0.45
2023-01-25T11:22:35.970Z,-0.50
2023-01-25T11:25:28.463Z,-0.52
2023-01-25T11:28:18.843Z,-0.53
2023-01-25T11:30:46.763Z,-0.53
2023-01-25T11:33:15.783Z,-0.54
2023-01-25T11:35:53.759Z,-0.55
2023-01-25T11:38:24.290Z,-0.52
2023-01-25T11:40:57.264Z,-0.49
2023-01-25T11:43:42.450Z,-0.46
2023-01-25T11:46:22.607Z,-0.46
2023-01-25T11:49:14.079Z,-0.53
2023-01-25T11:51:49.913Z,-0.54
2023-01-25T11:54:42.629Z,-0.52
2023-01-25T11:57:26.665Z,-0.50
2023-01-25T12:00:06.279Z,-0.51
2023-01-25T12:03:09.709Z,-0.49
2023-01-25T12:05:49.807Z,-0.47
2023-01-25T12:08:33.026Z,-0.48
2023-01-25T12:11:08.361Z,-0.48
2023-01-25T12:13:47.636Z,-0.50
2023-01-25T12:16:27.509Z,-0.53
2023-01-25T12:19:17.880Z,-0.52
2023-01-25T12:21:58.935Z,-0.50
2023-01-25T12:24:39.946Z,-0.49
2023-01-25T12:27:25.167Z,-0.51
2023-01-25T12:29:59.408Z,-0.53
2023-01-25T12:32:35.777Z,-0.53
2023-01-25T12:35:23.561Z,-0.53
2023-01-25T12:37:55.748Z,-0.52
2023-01-25T12:40:29.605Z,-0.52
2023-01-25T12:43:02.139Z,-0.52
2023-01-25T12:45:32.946Z,-0.48
2023-01-25T12:48:07.979Z,-0.47
2023-01-25T12:50:41.633Z,-0.44
2023-01-25T12:53:20.586Z,-0.41
2023-01-25T12:55:48.907Z,-0.43
2023-01-25T12:58:26.497Z,-0.47
2023-01-25T13:01:06.939Z,-0.47
2023-01-25T13:03:48.538Z,-0.45
2023-01-25T13:06:23.671Z,-0.42
2023-01-25T13:09:01.873Z,-0.41
2023-01-25T13:11:34.665Z,-0.41
2023-01-25T13:14:31.932Z,-0.40
2023-01-25T13:17:13.410Z,-0.37
2023-01-25T13:19:43.963Z,-0.34
2023-01-25T13:22:12.798Z,-0.30
2023-01-25T13:25:20.132Z,-0.25
2023-01-25T13:27:47.156Z,-0.18
2023-01-25T13:30:29.700Z,-0.15
2023-01-25T13:32:59.222Z,-0.14
2023-01-25T13:35:32.882Z,-0.11
2023-01-25T13:38:33.841Z,-0.11
2023-01-25T13:41:20.401Z,-0.10
2023-01-25T13:44:10.164Z,-0.12
2023-01-25T13:46:38.001Z,-0.14
2023-01-25T13:49:18.728Z,-0.14
2023-01-25T13:51:46.582Z,-0.15
2023-01-25T13:54:18.889Z,-0.15
2023-01-25T13:56:46.289Z,-0.17
2023-01-25T13:59:28.012Z,-0.18
2023-01-25T14:01:57.404Z,-0.20
2023-01-25T14:04:25.142Z,-0.19
2023-01-25T14:06:57.918Z,-0.20
2023-01-25T14:09:25.668Z,-0.19
2023-01-25T14:11:57.762Z,-0.20
2023-01-25T14:14:30.205Z,-0.23
2023-01-25T14:17:18.335Z,-0.27
2023-01-25T14:19:50.056Z,-0.26
2023-01-25T14:22:25.159Z,-0.27
2023-01-25T14:25:08.694Z,-0.29
2023-01-25T14:27:36.175Z,-0.30
2023-01-25T14:30:04.334Z,-0.33
2023-01-25T14:32:31.654Z,-0.33
2023-01-25T14:34:58.697Z,-0.33
2023-01-25T14:37:25.959Z,-0.32
2023-01-25T14:39:54.547Z,-0.36
2023-01-25T14:42:21.912Z,-0.39
2023-01-25T14:44:49.716Z,-0.40
2023-01-25T14:47:41.074Z,-0.41
2023-01-25T14:50:36.428Z,-0.43
2023-01-25T14:53:10.604Z,-0.48
2023-01-25T14:55:38.585Z,-0.50
2023-01-25T14:58:07.852Z,-0.51
2023-01-25T15:00:36.347Z,-0.53
2023-01-25T15:03:06.310Z,-0.53
2023-01-25T15:05:35.584Z,-0.53
2023-01-25T15:08:17.519Z,-0.54
2023-01-25T15:10:54.764Z,-0.55
2023-01-25T15:13:26.237Z,-0.58
2023-01-25T15:16:00.510Z,-0.58
2023-01-25T15:18:46.532Z,-0.60
2023-01-25T15:21:15.846Z,-0.61
2023-01-25T15:23:44.509Z,-0.65
2023-01-25T15:26:20.111Z,-0.65
2023-01-25T15:28:47.394Z,-0.67
2023-01-25T15:31:19.736Z,-0.67
2023-01-25T15:33:47.108Z,-0.67
2023-01-25T15:36:16.113Z,-0.66
2023-01-25T15:38:43.474Z,-0.66
2023-01-25T15:41:12.574Z,-0.67
2023-01-25T15:43:40.034Z,-0.68
2023-01-25T15:46:13.289Z,-0.68
2023-01-25T15:48:43.755Z,-0.67
2023-01-25T15:51:11.834Z,-0.69
2023-01-25T15:53:39.457Z,-0.69
2023-01-25T15:56:11.792Z,-0.69
2023-01-25T15:58:42.313Z,-0.70
2023-01-25T16:01:10.453Z,-0.71
2023-01-25T16:03:41.500Z,-0.72
2023-01-25T16:06:23.191Z,-0.72
2023-01-25T16:08:50.350Z,-0.72
2023-01-25T16:11:18.411Z,-0.74
2023-01-25T16:13:45.571Z,-0.73
2023-01-25T16:16:21.032Z,-0.73
2023-01-25T16:18:49.830Z,-0.72
2023-01-25T16:21:17.100Z,-0.71
2023-01-25T16:23:44.091Z,-0.72
2023-01-25T16:26:20.823Z,-0.72
2023-01-25T16:28:46.434Z,-0.71
2023-01-25T16:31:30.756Z,-0.71
2023-01-25T16:33:59.462Z,-0.70
2023-01-25T16:36:27.090Z,-0.67
2023-01-25T16:38:54.205Z,-0.68
2023-01-25T16:41:21.451Z,-0.67
2023-01-25T16:43:49.863Z,-0.67
2023-01-25T16:46:19.961Z,-0.65
2023-01-25T16:48:48.581Z,-0.65
2023-01-25T16:51:21.851Z,-0.64
2023-01-25T16:53:51.055Z,-0.64
2023-01-25T16:56:21.420Z,-0.64
2023-01-25T16:58:49.564Z,-0.66
2023-01-25T17:01:19.111Z,-0.66
2023-01-25T17:03:46.765Z,-0.66
2023-01-25T17:06:20.502Z,-0.64
2023-01-25T17:08:47.630Z,-0.62
2023-01-25T17:11:15.446Z,-0.60
2023-01-25T17:13:43.015Z,-0.56
2023-01-25T17:16:11.873Z,-0.54
2023-01-25T17:18:39.174Z,-0.51
2023-01-25T17:21:09.102Z,-0.48
2023-01-25T17:23:38.708Z,-0.46
2023-01-25T17:26:08.541Z,-0.45
2023-01-25T17:28:36.087Z,-0.43
2023-01-25T17:31:03.636Z,-0.42
2023-01-25T17:33:32.391Z,-0.39
2023-01-25T17:36:04.481Z,-0.39
2023-01-25T17:38:31.713Z,-0.36
2023-01-25T17:41:03.515Z,-0.36
2023-01-25T17:43:32.054Z,-0.39
2023-01-25T17:46:00.250Z,-0.43
2023-01-25T17:48:27.735Z,-0.48
2023-01-25T17:51:06.104Z,-0.48
2023-01-25T17:53:33.508Z,-0.48
2023-01-25T17:56:05.001Z,-0.49
2023-01-25T17:58:33.295Z,-0.48
2023-01-25T18:01:12.999Z,-0.49
2023-01-25T18:03:41.651Z,-0.52
2023-01-25T18:06:10.300Z,-0.52
2023-01-25T18:08:40.380Z,-0.51
2023-01-25T18:11:10.463Z,-0.51
2023-01-25T18:13:39.817Z,-0.51
2023-01-25T18:16:09.952Z,-0.51
2023-01-25T18:18:37.422Z,-0.52
2023-01-25T18:21:11.796Z,-0.51
2023-01-25T18:23:40.145Z,-0.47
2023-01-25T18:26:09.271Z,-0.45
2023-01-25T18:28:37.417Z,-0.43
2023-01-25T18:31:07.105Z,-0.45
2023-01-25T18:33:34.655Z,-0.45
2023-01-25T18:36:03.987Z,-0.45
2023-01-25T18:38:31.873Z,-0.46
2023-01-25T18:40:59.301Z,-0.47
2023-01-25T18:43:28.177Z,-0.45
2023-01-25T18:45:59.641Z,-0.48
2023-01-25T18:48:31.386Z,-0.51
2023-01-25T18:50:58.954Z,-0.51
2023-01-25T18:53:27.457Z,-0.53
2023-01-25T18:56:03.544Z,-0.54
2023-01-25T18:58:32.518Z,-0.51
2023-01-25T19:01:06.626Z,-0.48
2023-01-25T19:03:34.011Z,-0.46
2023-01-25T19:06:01.539Z,-0.45
2023-01-25T19:08:32.245Z,-0.45
2023-01-25T19:11:04.412Z,-0.44
2023-01-25T19:13:34.272Z,-0.43
2023-01-25T19:16:06.650Z,-0.43
2023-01-25T19:18:35.877Z,-0.48
2023-01-25T19:21:04.139Z,-0.50
2023-01-25T19:23:35.913Z,-0.52
2023-01-25T19:26:03.101Z,-0.52
2023-01-25T19:28:30.357Z,-0.50
2023-01-25T19:30:58.106Z,-0.49
2023-01-25T19:33:25.348Z,-0.50
2023-01-25T19:35:59.282Z,-0.51
2023-01-25T19:38:26.244Z,-0.52
2023-01-25T19:40:53.567Z,-0.52
2023-01-25T19:43:20.718Z,-0.53
2023-01-25T19:45:47.667Z,-0.55
2023-01-25T19:48:15.012Z,-0.54
2023-01-25T19:50:42.181Z,-0.53
2023-01-25T19:53:09.517Z,-0.55
2023-01-25T19:55:36.875Z,-0.58
2023-01-25T19:58:04.630Z,-0.57
2023-01-25T20:00:31.691Z,-0.60
2023-01-25T20:03:10.703Z,-0.64
2023-01-25T20:05:43.210Z,-0.67
2023-01-25T20:08:10.660Z,-0.71
2023-01-25T20:10:38.472Z,-0.73
2023-01-25T20:13:05.763Z,-0.72
2023-01-25T20:15:32.912Z,-0.69
2023-01-25T20:17:59.897Z,-0.65
2023-01-25T20:20:27.023Z,-0.62
2023-01-25T20:22:55.901Z,-0.61
2023-01-25T20:25:23.461Z,-0.61
2023-01-25T20:27:50.611Z,-0.64
2023-01-25T20:30:18.593Z,-0.65
2023-01-25T20:32:45.726Z,-0.65
2023-01-25T20:35:13.428Z,-0.63
2023-01-25T20:37:40.712Z,-0.59
2023-01-25T20:40:10.014Z,-0.55
2023-01-25T20:42:37.771Z,-0.54
2023-01-25T20:45:05.793Z,-0.52
2023-01-25T20:47:32.744Z,-0.51
2023-01-25T20:49:59.897Z,-0.47
2023-01-25T20:52:27.025Z,-0.43
2023-01-25T20:54:54.795Z,-0.40
2023-01-25T20:57:21.943Z,-0.36
2023-01-25T20:59:48.984Z,-0.32
2023-01-25T21:02:16.006Z,-0.30
2023-01-25T21:04:43.070Z,-0.29
2023-01-25T21:07:10.770Z,-0.28
2023-01-25T21:09:37.708Z,-0.26
2023-01-25T21:12:05.042Z,-0.24
2023-01-25T21:14:32.244Z,-0.23
2023-01-25T21:17:01.763Z,-0.24
2023-01-25T21:19:28.961Z,-0.23
2023-01-25T21:21:56.208Z,-0.25
2023-01-25T21:24:23.640Z,-0.24
2023-01-25T21:26:50.935Z,-0.25
2023-01-25T21:29:20.441Z,-0.24
2023-01-25T21:31:49.251Z,-0.20
2023-01-25T21:34:16.772Z,-0.18
2023-01-25T21:36:44.057Z,-0.18
2023-01-25T21:39:11.289Z,-0.17
2023-01-25T21:41:38.331Z,-0.19
2023-01-25T21:44:23.607Z,-0.21
2023-01-25T21:49:55.518Z,-0.26
2023-01-25T21:52:22.494Z,-0.27
2023-01-25T21:54:49.706Z,-0.29
2023-01-25T21:57:16.744Z,-0.31
2023-01-25T21:59:43.876Z,-0.30
2023-01-25T22:02:14.834Z,-0.26
2023-01-25T22:04:42.604Z,-0.24
2023-01-25T22:07:10.995Z,-0.22
2023-01-25T22:09:38.119Z,-0.23
2023-01-25T22:12:05.370Z,-0.20
2023-01-25T22:14:32.432Z,-0.18
2023-01-25T22:16:59.871Z,-0.19
2023-01-25T22:19:27.292Z,-0.21
2023-01-25T22:21:54.484Z,-0.24
2023-01-25T22:24:21.953Z,-0.27
2023-01-25T22:26:59.025Z,-0.26
2023-01-25T22:29:26.712Z,-0.27
2023-01-25T22:31:53.945Z,-0.27
2023-01-25T22:34:21.546Z,-0.31
2023-01-25T22:36:48.943Z,-0.33
2023-01-25T22:39:19.732Z,-0.36
2023-01-25T22:41:46.778Z,-0.39
2023-01-25T22:44:14.836Z,-0.38
2023-01-25T22:46:42.160Z,-0.39
2023-01-25T22:49:09.131Z,-0.39
2023-01-25T22:51:36.459Z,-0.42
2023-01-25T22:54:03.916Z,-0.42
2023-01-25T22:56:33.280Z,-0.42
2023-01-25T22:59:01.083Z,-0.42
2023-01-25T23:01:30.953Z,-0.44
2023-01-25T23:03:58.774Z,-0.45
2023-01-25T23:06:27.757Z,-0.50
2023-01-25T23:08:57.484Z,-0.52
2023-01-25T23:11:32.383Z,-0.54
2023-01-25T23:14:17.432Z,-0.56
2023-01-25T23:16:45.436Z,-0.57
2023-01-25T23:19:12.731Z,-0.60
2023-01-25T23:21:40.039Z,-0.62
2023-01-25T23:24:08.169Z,-0.66
2023-01-25T23:26:39.051Z,-0.66
2023-01-25T23:29:09.479Z,-0.65
2023-01-25T23:31:37.009Z,-0.64
2023-01-25T23:34:06.544Z,-0.63
2023-01-25T23:36:35.546Z,-0.64
2023-01-25T23:39:03.323Z,-0.64
2023-01-25T23:41:31.988Z,-0.64
2023-01-25T23:44:00.937Z,-0.63
2023-01-25T23:46:29.364Z,-0.62
2023-01-25T23:48:56.818Z,-0.58
2023-01-25T23:51:23.968Z,-0.53
2023-01-25T23:53:53.604Z,-0.49
2023-01-25T23:56:22.975Z,-0.45
2023-01-25T23:58:50.439Z,-0.41
